Time;durP1;ratioP1;P1;durP2;ratioP2;P2;SDS_P1;SDS_P2;PMS_P1;PMS_P2;Temp;Humidity;BMP_temperature;BMP_pressure;BME280_temperature;BME280_humidity;BME280_pressure;Samples;Min_cycle;Max_cycle;Signal;HPM_P1;HPM_P2
2023/11/06 00:01:10;;;;;;;2.22;1.10;;;9.70;98.30;;;;;;4983396;28;20039;-70
2023/11/06 00:03:36;;;;;;;1.60;1.00;;;9.70;98.10;;;;;;4986671;28;20031;-70
2023/11/06 00:06:02;;;;;;;1.73;0.77;;;9.80;98.00;;;;;;4986535;28;20109;-69
2023/11/06 00:08:27;;;;;;;1.17;0.70;;;9.80;97.70;;;;;;4986796;28;20031;-69
2023/11/06 00:10:53;;;;;;;1.73;1.00;;;9.80;97.70;;;;;;4985494;28;20046;-69
2023/11/06 00:13:18;;;;;;;2.55;1.30;;;9.80;97.80;;;;;;4986989;28;20114;-69
2023/11/06 00:15:44;;;;;;;3.10;1.13;;;9.80;97.90;;;;;;4984263;28;20117;-69
2023/11/06 00:18:10;;;;;;;3.58;1.10;;;9.80;97.60;;;;;;4984754;28;20450;-69
2023/11/06 00:20:36;;;;;;;1.55;0.90;;;9.80;97.20;;;;;;4986563;28;20110;-70
2023/11/06 00:23:01;;;;;;;2.33;0.77;;;9.80;97.20;;;;;;4995381;28;20132;-69
2023/11/06 00:25:27;;;;;;;0.80;0.55;;;9.80;97.40;;;;;;4988785;28;20077;-69
2023/11/06 00:27:52;;;;;;;3.05;1.08;;;9.80;97.10;;;;;;4984984;28;20074;-71
2023/11/06 00:30:18;;;;;;;2.78;1.20;;;9.80;97.30;;;;;;4987209;28;20041;-69
2023/11/06 00:32:43;;;;;;;3.10;1.52;;;9.70;97.50;;;;;;4987507;28;20034;-70
2023/11/06 00:35:09;;;;;;;1.55;0.65;;;9.70;97.40;;;;;;4986696;28;20042;-71
2023/11/06 00:37:35;;;;;;;1.48;0.80;;;9.70;97.60;;;;;;4981499;28;20100;-70
2023/11/06 00:40:00;;;;;;;2.35;1.23;;;9.70;97.30;;;;;;4989442;28;20030;-70
2023/11/06 00:42:26;;;;;;;2.92;1.17;;;9.70;97.10;;;;;;4989233;28;20117;-70
2023/11/06 00:44:53;;;;;;;1.63;1.00;;;9.70;97.10;;;;;;4984311;28;20093;-69
2023/11/06 00:47:18;;;;;;;3.58;1.08;;;9.60;97.20;;;;;;4988016;28;20034;-70
2023/11/06 00:49:44;;;;;;;1.45;0.95;;;9.60;97.20;;;;;;4987013;28;20412;-70
2023/11/06 00:52:09;;;;;;;1.80;0.95;;;9.50;97.20;;;;;;4989483;28;20031;-69
2023/11/06 00:54:35;;;;;;;1.40;0.90;;;9.60;97.00;;;;;;4990377;28;20556;-70
2023/11/06 00:57:00;;;;;;;1.80;1.25;;;9.50;97.00;;;;;;4985055;28;20046;-69
2023/11/06 00:59:26;;;;;;;3.10;1.10;;;9.40;97.10;;;;;;4984614;28;20113;-70
2023/11/06 01:01:53;;;;;;;2.28;1.23;;;9.40;96.90;;;;;;4984964;28;20042;-69
2023/11/06 01:04:19;;;;;;;1.20;0.93;;;9.40;97.00;;;;;;4991295;28;20031;-69
2023/11/06 01:06:45;;;;;;;4.38;1.40;;;9.40;96.90;;;;;;4982469;28;20411;-69
2023/11/06 01:09:11;;;;;;;3.08;1.55;;;9.40;96.80;;;;;;4990031;28;20485;-69
2023/11/06 01:11:36;;;;;;;3.58;1.30;;;9.50;96.50;;;;;;4990249;28;20041;-70
2023/11/06 01:14:03;;;;;;;2.83;0.90;;;9.50;96.30;;;;;;4977995;28;20526;-70
2023/11/06 01:16:28;;;;;;;2.45;1.60;;;9.40;96.40;;;;;;4983370;28;20045;-69
2023/11/06 01:18:54;;;;;;;4.68;1.65;;;9.30;96.60;;;;;;4989261;28;20483;-70
2023/11/06 01:21:19;;;;;;;4.38;1.00;;;9.40;96.30;;;;;;4983061;28;20173;-70
2023/11/06 01:23:45;;;;;;;3.75;1.25;;;9.20;96.60;;;;;;4989512;28;20053;-70
2023/11/06 01:26:10;;;;;;;1.88;1.10;;;9.30;96.60;;;;;;4985485;28;20063;-70
2023/11/06 01:28:36;;;;;;;2.55;1.23;;;9.30;96.60;;;;;;4986196;28;20042;-69
2023/11/06 01:31:02;;;;;;;1.63;1.10;;;9.20;96.70;;;;;;4982816;28;20035;-69
2023/11/06 01:33:28;;;;;;;2.20;1.17;;;9.20;96.70;;;;;;4983117;28;20030;-69
2023/11/06 01:35:53;;;;;;;1.70;0.95;;;9.20;96.70;;;;;;4984571;28;20117;-70
2023/11/06 01:38:19;;;;;;;1.95;1.30;;;9.20;96.70;;;;;;4985083;28;20108;-69
2023/11/06 01:40:44;;;;;;;1.65;0.90;;;9.20;96.70;;;;;;4985019;28;20037;-69
2023/11/06 01:43:10;;;;;;;1.80;0.90;;;9.20;96.60;;;;;;4983757;28;20035;-69
2023/11/06 01:45:36;;;;;;;1.65;1.02;;;9.20;96.90;;;;;;4988369;28;20038;-70
2023/11/06 01:48:03;;;;;;;2.75;1.20;;;9.20;96.90;;;;;;4993024;28;20108;-69
2023/11/06 01:50:34;;;;;;;1.63;1.00;;;9.30;96.60;;;;;;4988746;28;20054;-69
2023/11/06 01:53:03;;;;;;;1.33;1.00;;;9.20;97.00;;;;;;4986715;28;20039;-70
2023/11/06 01:55:29;;;;;;;2.05;1.13;;;9.20;96.90;;;;;;4991903;28;20272;-69
2023/11/06 01:57:55;;;;;;;1.48;1.10;;;9.30;96.50;;;;;;4985051;28;20034;-69
2023/11/06 02:00:23;;;;;;;3.65;1.52;;;9.20;96.70;;;;;;4987613;28;20041;-70
2023/11/06 02:02:48;;;;;;;3.67;1.65;;;9.20;96.70;;;;;;4989208;28;20399;-69
2023/11/06 02:05:15;;;;;;;1.63;1.20;;;9.10;96.80;;;;;;4990280;28;20883;-69
2023/11/06 02:07:40;;;;;;;3.13;1.33;;;9.10;96.80;;;;;;4991892;28;20549;-71
2023/11/06 02:10:06;;;;;;;2.88;1.48;;;9.10;96.90;;;;;;4985537;28;20066;-70
2023/11/06 02:12:32;;;;;;;4.07;1.52;;;9.10;96.90;;;;;;4990990;28;20121;-70
2023/11/06 02:14:58;;;;;;;2.65;1.58;;;9.10;96.90;;;;;;4985883;28;20030;-70
2023/11/06 02:17:25;;;;;;;3.00;1.20;;;9.00;97.30;;;;;;4989264;28;20030;-70
2023/11/06 02:19:51;;;;;;;2.70;1.42;;;8.90;97.30;;;;;;4994046;28;20058;-69
2023/11/06 02:22:21;;;;;;;1.90;1.23;;;8.90;97.50;;;;;;4990863;28;20125;-69
2023/11/06 02:24:48;;;;;;;2.42;1.27;;;9.00;97.00;;;;;;4987240;28;20041;-68
2023/11/06 02:27:15;;;;;;;1.83;1.35;;;8.90;97.00;;;;;;4980704;28;20054;-71
2023/11/06 02:29:41;;;;;;;2.85;1.30;;;9.00;96.90;;;;;;4987907;28;20022;-69
2023/11/06 02:32:07;;;;;;;3.47;1.40;;;8.90;97.10;;;;;;4988250;28;20038;-68
2023/11/06 02:34:36;;;;;;;1.73;1.10;;;8.90;97.00;;;;;;4990950;28;20113;-69
2023/11/06 02:37:02;;;;;;;2.58;1.33;;;8.80;97.20;;;;;;4988669;28;20034;-69
2023/11/06 02:39:27;;;;;;;1.40;1.00;;;8.80;97.10;;;;;;4988600;28;20482;-69
2023/11/06 02:41:53;;;;;;;3.70;1.65;;;8.70;97.30;;;;;;4983282;28;20328;-69
2023/11/06 02:44:18;;;;;;;2.20;1.00;;;8.60;97.30;;;;;;4983484;28;20142;-69
2023/11/06 02:46:44;;;;;;;1.65;1.08;;;8.60;97.30;;;;;;4986238;28;20117;-69
2023/11/06 02:49:10;;;;;;;1.73;1.13;;;8.60;97.40;;;;;;4990172;28;20514;-69
2023/11/06 02:51:36;;;;;;;1.55;0.93;;;8.60;97.20;;;;;;4986964;28;20030;-70
2023/11/06 02:54:03;;;;;;;1.88;1.02;;;8.50;97.30;;;;;;4987217;28;20030;-69
2023/11/06 02:56:35;;;;;;;1.75;1.05;;;8.60;97.10;;;;;;4986250;28;20041;-69
2023/11/06 02:59:04;;;;;;;2.42;0.82;;;8.60;97.20;;;;;;4984182;28;20491;-70
2023/11/06 03:01:30;;;;;;;2.55;1.17;;;8.60;97.10;;;;;;4988786;28;20463;-69
2023/11/06 03:03:57;;;;;;;1.67;0.80;;;8.60;97.20;;;;;;4993612;28;20044;-70
2023/11/06 03:06:26;;;;;;;2.65;1.20;;;8.50;97.20;;;;;;4983118;28;20375;-68
2023/11/06 03:08:52;;;;;;;1.95;1.00;;;8.50;97.20;;;;;;4988640;28;20057;-69
2023/11/06 03:11:17;;;;;;;3.58;1.10;;;8.50;97.20;;;;;;4983288;28;20030;-69
2023/11/06 03:13:44;;;;;;;1.45;1.05;;;8.50;97.20;;;;;;4982868;28;20034;-69
2023/11/06 03:16:09;;;;;;;1.15;1.05;;;8.50;97.00;;;;;;4985435;28;20038;-69
2023/11/06 03:18:35;;;;;;;1.88;1.40;;;8.50;97.10;;;;;;4986587;28;20092;-69
2023/11/06 03:21:01;;;;;;;1.17;0.85;;;8.50;97.30;;;;;;4985170;28;20085;-68
2023/11/06 03:23:27;;;;;;;2.15;1.10;;;8.40;97.30;;;;;;4984270;28;20475;-70
2023/11/06 03:25:52;;;;;;;1.33;0.98;;;8.50;97.20;;;;;;4990501;28;20142;-68
2023/11/06 03:28:18;;;;;;;2.00;1.40;;;8.50;97.20;;;;;;4985282;28;21199;-69
2023/11/06 03:30:44;;;;;;;1.40;1.13;;;8.40;97.30;;;;;;4990609;28;20034;-69
2023/11/06 03:33:09;;;;;;;1.38;1.00;;;8.40;97.30;;;;;;4991814;28;20037;-69
2023/11/06 03:35:35;;;;;;;3.15;1.27;;;8.50;97.30;;;;;;4979612;28;20125;-68
2023/11/06 03:38:00;;;;;;;1.98;1.45;;;8.50;97.30;;;;;;4984287;28;20465;-69
2023/11/06 03:40:26;;;;;;;2.17;1.08;;;8.40;97.50;;;;;;4984923;28;20439;-69
2023/11/06 03:42:52;;;;;;;1.98;1.38;;;8.40;97.50;;;;;;4982889;28;20046;-69
2023/11/06 03:45:17;;;;;;;3.03;1.58;;;8.50;97.40;;;;;;4987272;28;20022;-68
2023/11/06 03:47:42;;;;;;;2.42;1.40;;;8.40;97.50;;;;;;4984444;28;20392;-69
2023/11/06 03:50:08;;;;;;;2.67;1.58;;;8.50;97.60;;;;;;4988808;28;20085;-69
2023/11/06 03:52:33;;;;;;;3.50;2.05;;;8.40;97.50;;;;;;4983995;28;20073;-71
2023/11/06 03:54:59;;;;;;;4.05;1.70;;;8.30;97.80;;;;;;4989881;28;20108;-69
2023/11/06 03:57:25;;;;;;;3.55;1.52;;;8.30;97.80;;;;;;4981364;28;20039;-69
2023/11/06 03:59:50;;;;;;;2.97;1.58;;;8.30;97.90;;;;;;4984246;28;20038;-69
2023/11/06 04:02:16;;;;;;;2.45;1.50;;;8.30;97.90;;;;;;4983509;28;20065;-69
2023/11/06 04:04:42;;;;;;;2.35;1.10;;;8.30;98.00;;;;;;4984915;28;20041;-69
2023/11/06 04:07:07;;;;;;;2.33;1.58;;;8.30;98.00;;;;;;4983292;28;20034;-68
2023/11/06 04:09:33;;;;;;;4.40;1.70;;;8.30;98.20;;;;;;4982433;28;20073;-68
2023/11/06 04:11:59;;;;;;;1.90;1.38;;;8.30;98.10;;;;;;4982107;28;20509;-69
2023/11/06 04:14:24;;;;;;;2.53;1.65;;;8.20;98.10;;;;;;4990117;28;20042;-69
2023/11/06 04:16:49;;;;;;;3.58;1.80;;;8.30;98.10;;;;;;4986855;28;20388;-69
2023/11/06 04:19:15;;;;;;;3.08;1.63;;;8.30;98.10;;;;;;4992352;28;20054;-68
2023/11/06 04:21:40;;;;;;;3.40;2.05;;;8.20;98.20;;;;;;4983025;28;20084;-69
2023/11/06 04:24:06;;;;;;;3.08;1.63;;;8.20;98.20;;;;;;4984159;28;20034;-72
2023/11/06 04:26:31;;;;;;;4.00;2.20;;;8.20;98.30;;;;;;4982464;28;20499;-69
2023/11/06 04:28:57;;;;;;;2.50;1.45;;;8.40;98.10;;;;;;4985313;28;20085;-72
2023/11/06 04:31:22;;;;;;;4.05;1.85;;;8.30;98.10;;;;;;4988680;28;20476;-69
2023/11/06 04:33:48;;;;;;;5.68;2.53;;;8.30;98.10;;;;;;4981752;28;20042;-68
2023/11/06 04:36:13;;;;;;;3.75;1.58;;;8.20;98.20;;;;;;4986150;28;20042;-69
2023/11/06 04:38:39;;;;;;;2.92;1.40;;;8.20;98.10;;;;;;4980710;28;20419;-69
2023/11/06 04:41:04;;;;;;;2.42;1.52;;;8.30;98.20;;;;;;4983099;28;20042;-69
2023/11/06 04:43:30;;;;;;;3.72;2.22;;;8.30;98.20;;;;;;4979838;28;20026;-70
2023/11/06 04:45:55;;;;;;;3.25;1.90;;;8.30;98.30;;;;;;4986791;28;20038;-70
2023/11/06 04:48:21;;;;;;;2.78;2.13;;;8.20;98.20;;;;;;4989208;28;20502;-70
2023/11/06 04:50:46;;;;;;;2.50;1.50;;;8.20;98.40;;;;;;4985004;28;20080;-69
2023/11/06 04:53:12;;;;;;;3.20;1.73;;;8.20;98.40;;;;;;4988027;28;20030;-71
2023/11/06 04:55:37;;;;;;;4.80;2.58;;;8.20;98.50;;;;;;4986805;28;20022;-69
2023/11/06 04:58:04;;;;;;;2.38;1.38;;;8.30;98.50;;;;;;4984235;28;20097;-69
2023/11/06 05:00:29;;;;;;;3.65;1.77;;;8.50;98.30;;;;;;4986441;28;21536;-71
2023/11/06 05:02:55;;;;;;;3.42;2.20;;;8.60;97.90;;;;;;4984115;28;20041;-69
2023/11/06 05:05:21;;;;;;;3.90;2.40;;;8.60;98.00;;;;;;4988685;28;20033;-71
2023/11/06 05:07:47;;;;;;;3.83;2.10;;;8.70;97.90;;;;;;4986515;28;20539;-70
2023/11/06 05:10:12;;;;;;;3.92;2.22;;;8.70;97.80;;;;;;4979534;28;20137;-69
2023/11/06 05:12:38;;;;;;;4.95;2.00;;;8.80;97.80;;;;;;4985553;28;20118;-69
2023/11/06 05:15:04;;;;;;;3.00;1.80;;;8.80;97.70;;;;;;4979312;28;20065;-73
2023/11/06 05:17:30;;;;;;;6.22;2.13;;;8.90;97.40;;;;;;4986406;28;20487;-70
2023/11/06 05:19:56;;;;;;;3.75;2.13;;;8.90;97.40;;;;;;4984994;28;20034;-71
2023/11/06 05:22:22;;;;;;;4.40;2.25;;;8.80;97.40;;;;;;4987836;28;20030;-69
2023/11/06 05:24:47;;;;;;;4.25;2.25;;;8.70;97.60;;;;;;4986456;28;20411;-69
2023/11/06 05:27:13;;;;;;;5.63;2.65;;;8.70;97.70;;;;;;4982246;28;20138;-68
2023/11/06 05:29:39;;;;;;;3.53;1.90;;;8.60;97.70;;;;;;4989956;28;20038;-66
2023/11/06 05:32:05;;;;;;;3.33;2.08;;;8.60;97.60;;;;;;4999306;28;20112;-66
2023/11/06 05:34:31;;;;;;;7.25;2.30;;;8.60;97.90;;;;;;4982246;28;20464;-66
2023/11/06 05:36:57;;;;;;;5.22;2.33;;;8.60;97.70;;;;;;4982162;28;20490;-66
2023/11/06 05:39:23;;;;;;;4.10;2.22;;;8.60;97.70;;;;;;4982303;28;20141;-66
2023/11/06 05:41:48;;;;;;;4.38;2.55;;;8.50;98.00;;;;;;4989101;28;20117;-66
2023/11/06 05:44:17;;;;;;;3.38;1.77;;;8.60;98.10;;;;;;4986049;28;20026;-66
2023/11/06 05:46:43;;;;;;;3.78;2.00;;;8.60;98.10;;;;;;4978232;28;20042;-67
2023/11/06 05:49:10;;;;;;;4.05;1.52;;;8.60;98.30;;;;;;4984096;28;20419;-67
2023/11/06 05:51:36;;;;;;;4.32;1.88;;;8.80;98.10;;;;;;4979863;28;20037;-68
2023/11/06 05:54:01;;;;;;;5.00;1.92;;;8.80;97.90;;;;;;4982793;28;20567;-68
2023/11/06 05:56:27;;;;;;;2.78;1.65;;;8.90;97.80;;;;;;4988198;28;20117;-67
2023/11/06 05:58:52;;;;;;;2.78;1.67;;;9.00;97.50;;;;;;4983419;28;20027;-67
2023/11/06 06:01:18;;;;;;;2.28;1.60;;;9.00;97.40;;;;;;4984630;28;20053;-67
2023/11/06 06:03:43;;;;;;;3.88;2.03;;;9.10;97.20;;;;;;4984117;28;20031;-69
2023/11/06 06:06:14;;;;;;;4.47;2.15;;;9.10;96.90;;;;;;4984198;28;20047;-70
2023/11/06 06:08:40;;;;;;;3.45;2.05;;;9.10;97.10;;;;;;4983121;28;20553;-67
2023/11/06 06:11:05;;;;;;;3.50;1.52;;;9.10;97.00;;;;;;4987995;28;20065;-69
2023/11/06 06:13:31;;;;;;;4.45;1.98;;;9.20;97.10;;;;;;4984191;28;20034;-69
2023/11/06 06:15:56;;;;;;;3.08;1.90;;;9.20;97.10;;;;;;4982577;28;20165;-68
2023/11/06 06:18:22;;;;;;;3.42;1.75;;;9.20;97.00;;;;;;4985325;28;20114;-68
2023/11/06 06:20:47;;;;;;;2.83;1.63;;;9.20;96.90;;;;;;4989533;28;20035;-68
2023/11/06 06:23:13;;;;;;;3.00;1.60;;;9.20;97.00;;;;;;4984194;28;20035;-68
2023/11/06 06:25:38;;;;;;;2.97;1.83;;;9.20;96.90;;;;;;4988872;28;20058;-68
2023/11/06 06:28:04;;;;;;;3.38;1.55;;;9.20;97.00;;;;;;4986766;28;20112;-67
2023/11/06 06:30:30;;;;;;;3.30;1.92;;;9.20;97.00;;;;;;4983179;28;20089;-70
2023/11/06 06:32:56;;;;;;;2.78;1.60;;;9.30;96.80;;;;;;4990713;28;20042;-69
2023/11/06 06:35:22;;;;;;;3.55;1.80;;;9.30;97.00;;;;;;4988501;28;20046;-68
2023/11/06 06:37:47;;;;;;;4.00;1.85;;;9.30;96.90;;;;;;4984952;28;20571;-67
2023/11/06 06:40:13;;;;;;;5.00;1.73;;;9.30;96.90;;;;;;4984510;28;20038;-67
2023/11/06 06:42:39;;;;;;;2.75;1.98;;;9.30;96.80;;;;;;4988548;28;20038;-68
2023/11/06 06:45:05;;;;;;;2.08;1.52;;;9.30;96.80;;;;;;4985087;28;20041;-67
2023/11/06 06:47:30;;;;;;;5.03;2.03;;;9.40;96.60;;;;;;4993901;28;20245;-67
2023/11/06 06:49:56;;;;;;;1.88;1.42;;;9.40;96.50;;;;;;4992241;28;20120;-68
2023/11/06 06:52:21;;;;;;;3.20;1.80;;;9.40;96.50;;;;;;4989815;28;20035;-68
2023/11/06 06:54:47;;;;;;;3.05;1.83;;;9.40;96.40;;;;;;4984682;28;20109;-68
2023/11/06 06:57:12;;;;;;;2.53;1.40;;;9.40;96.30;;;;;;5001859;28;20046;-69
2023/11/06 06:59:38;;;;;;;2.28;1.50;;;9.50;96.10;;;;;;4988663;28;20382;-68
2023/11/06 07:02:04;;;;;;;4.57;1.52;;;9.50;96.20;;;;;;4988544;28;20117;-67
2023/11/06 07:04:29;;;;;;;2.85;1.67;;;9.50;96.30;;;;;;4993157;28;20487;-67
2023/11/06 07:06:55;;;;;;;2.72;1.50;;;9.50;96.20;;;;;;4984111;28;20042;-67
2023/11/06 07:09:23;;;;;;;2.67;1.58;;;9.50;96.10;;;;;;4985572;28;20379;-67
2023/11/06 07:11:49;;;;;;;2.88;1.50;;;9.60;96.00;;;;;;4992651;28;20038;-68
2023/11/06 07:14:14;;;;;;;2.67;1.42;;;9.60;95.80;;;;;;4988476;28;20383;-67
2023/11/06 07:16:40;;;;;;;2.20;1.40;;;9.60;96.00;;;;;;4986908;28;20042;-66
2023/11/06 07:19:05;;;;;;;1.70;0.95;;;9.60;95.80;;;;;;4991109;28;20065;-68
2023/11/06 07:21:32;;;;;;;1.85;1.20;;;9.60;95.70;;;;;;4988419;28;20026;-66
2023/11/06 07:23:57;;;;;;;1.75;1.15;;;9.60;95.70;;;;;;4993518;28;20034;-68
2023/11/06 07:26:23;;;;;;;3.00;1.42;;;9.60;95.90;;;;;;4985594;28;20061;-66
2023/11/06 07:28:48;;;;;;;3.15;1.80;;;9.60;95.80;;;;;;4994644;28;20383;-66
2023/11/06 07:31:14;;;;;;;2.25;1.02;;;9.60;95.80;;;;;;4987275;28;20467;-68
2023/11/06 07:33:40;;;;;;;3.22;1.50;;;9.60;96.00;;;;;;4989672;28;20105;-66
2023/11/06 07:36:07;;;;;;;2.58;1.20;;;9.60;96.10;;;;;;4982927;28;20104;-67
2023/11/06 07:38:32;;;;;;;1.95;1.20;;;9.60;96.10;;;;;;4987069;28;20383;-69
2023/11/06 07:40:58;;;;;;;2.58;1.45;;;9.60;96.10;;;;;;4992027;28;20026;-67
2023/11/06 07:43:23;;;;;;;2.65;1.13;;;9.60;96.10;;;;;;4989727;28;20038;-67
2023/11/06 07:45:49;;;;;;;3.08;1.05;;;9.60;96.10;;;;;;4981494;28;20041;-67
2023/11/06 07:48:14;;;;;;;2.67;1.30;;;9.70;95.90;;;;;;4984355;28;20053;-66
2023/11/06 07:50:40;;;;;;;3.58;1.50;;;9.70;95.80;;;;;;4985980;28;20549;-66
2023/11/06 07:53:06;;;;;;;3.03;1.40;;;9.70;95.80;;;;;;4989340;28;20038;-67
2023/11/06 07:55:32;;;;;;;2.33;1.17;;;9.70;95.80;;;;;;4991199;28;20034;-66
2023/11/06 07:57:57;;;;;;;2.60;1.20;;;9.70;95.90;;;;;;4986634;28;20027;-66
2023/11/06 08:00:23;;;;;;;2.22;1.27;;;9.70;96.10;;;;;;4984450;28;20415;-66
2023/11/06 08:02:50;;;;;;;2.72;1.35;;;9.70;96.20;;;;;;4979481;28;20035;-65
2023/11/06 08:05:16;;;;;;;3.90;1.42;;;9.70;96.20;;;;;;4990178;28;20041;-66
2023/11/06 08:07:42;;;;;;;1.48;1.00;;;9.70;96.20;;;;;;4986955;28;20479;-69
2023/11/06 08:10:09;;;;;;;1.83;1.17;;;9.70;96.10;;;;;;4986231;28;20044;-65
2023/11/06 08:12:35;;;;;;;3.88;1.25;;;9.80;96.10;;;;;;4980233;28;20033;-65
2023/11/06 08:15:02;;;;;;;2.15;1.23;;;9.80;95.70;;;;;;4979484;28;20479;-66
2023/11/06 08:17:28;;;;;;;3.70;1.35;;;9.80;95.70;;;;;;4991373;28;20030;-66
2023/11/06 08:19:53;;;;;;;3.45;1.10;;;9.90;95.60;;;;;;4985404;28;20042;-67
2023/11/06 08:22:20;;;;;;;1.98;1.10;;;9.90;95.50;;;;;;4989006;28;20564;-66
2023/11/06 08:24:46;;;;;;;2.28;1.58;;;9.90;95.60;;;;;;4992214;28;20031;-66
2023/11/06 08:27:12;;;;;;;5.85;1.60;;;9.90;95.40;;;;;;4985427;28;20676;-68
2023/11/06 08:29:42;;;;;;;3.47;1.33;;;9.90;95.20;;;;;;4989077;28;20441;-66
2023/11/06 08:32:11;;;;;;;2.20;1.33;;;10.00;95.20;;;;;;4985432;28;20037;-65
2023/11/06 08:34:43;;;;;;;3.20;1.55;;;10.00;95.20;;;;;;4985992;28;20105;-65
2023/11/06 08:37:11;;;;;;;2.78;1.35;;;9.90;95.00;;;;;;4980095;28;20065;-67
2023/11/06 08:39:46;;;;;;;2.10;1.17;;;9.90;95.20;;;;;;4986859;28;20038;-65
2023/11/06 08:42:13;;;;;;;5.30;1.88;;;10.10;94.50;;;;;;4988065;28;20105;-69
2023/11/06 08:44:42;;;;;;;3.00;1.30;;;10.30;94.50;;;;;;4985193;28;20029;-65
2023/11/06 08:47:08;;;;;;;3.00;1.70;;;10.30;94.30;;;;;;4991341;28;20371;-66
2023/11/06 08:49:34;;;;;;;1.92;1.30;;;10.40;93.90;;;;;;4985130;28;20848;-66
2023/11/06 08:51:59;;;;;;;4.22;1.55;;;10.40;94.00;;;;;;4981564;28;20276;-66
2023/11/06 08:54:25;;;;;;;2.40;1.15;;;10.50;93.70;;;;;;4988631;28;20063;-66
2023/11/06 08:56:50;;;;;;;2.20;1.50;;;10.50;93.70;;;;;;4984476;28;20448;-65
2023/11/06 08:59:16;;;;;;;4.22;2.22;;;10.50;93.50;;;;;;4982901;28;20038;-65
2023/11/06 09:01:47;;;;;;;2.20;1.40;;;10.50;93.50;;;;;;4985153;28;20467;-65
2023/11/06 09:04:13;;;;;;;;;;;10.50;93.50;;;;;;4985921;28;20068;-67
2023/11/06 09:06:40;;;;;;;1.83;1.17;;;10.60;93.60;;;;;;4985776;28;20435;-66
2023/11/06 09:09:08;;;;;;;3.72;1.17;;;10.60;93.10;;;;;;4985484;28;20030;-66
2023/11/06 09:11:38;;;;;;;2.38;1.33;;;10.70;93.50;;;;;;4985693;28;20519;-65
2023/11/06 09:14:04;;;;;;;3.00;1.40;;;10.70;93.00;;;;;;4984054;28;20032;-69
2023/11/06 09:16:33;;;;;;;4.30;1.52;;;10.60;92.50;;;;;;4986287;28;20113;-66
2023/11/06 09:18:59;;;;;;;2.40;1.27;;;10.60;92.00;;;;;;4986716;28;20042;-65
2023/11/06 09:21:24;;;;;;;1.52;1.00;;;10.60;92.50;;;;;;4985323;28;20030;-65
2023/11/06 09:23:50;;;;;;;2.25;1.20;;;10.70;92.60;;;;;;4987709;28;20515;-65
2023/11/06 09:26:15;;;;;;;2.28;1.30;;;10.60;92.10;;;;;;4989350;28;20046;-67
2023/11/06 09:28:41;;;;;;;2.58;1.38;;;10.60;92.40;;;;;;4986978;28;20121;-65
2023/11/06 09:31:07;;;;;;;2.67;1.40;;;10.60;92.30;;;;;;4980689;28;20049;-69
2023/11/06 09:33:32;;;;;;;1.77;1.08;;;10.60;91.90;;;;;;4986601;28;20027;-66
2023/11/06 09:35:58;;;;;;;2.83;1.23;;;10.70;92.40;;;;;;4989064;28;20038;-65
2023/11/06 09:38:23;;;;;;;1.27;0.80;;;10.70;92.10;;;;;;4988528;28;20096;-65
2023/11/06 09:40:49;;;;;;;1.45;0.93;;;10.60;91.60;;;;;;4989016;28;20038;-66
2023/11/06 09:43:14;;;;;;;3.10;1.10;;;10.60;91.40;;;;;;4986235;28;20023;-67
2023/11/06 09:45:40;;;;;;;1.58;0.88;;;10.60;91.90;;;;;;4987147;28;20075;-66
2023/11/06 09:48:09;;;;;;;4.22;0.95;;;10.60;92.00;;;;;;4997708;28;20109;-67
2023/11/06 09:50:35;;;;;;;1.42;0.85;;;10.60;92.00;;;;;;4987719;28;20023;-65
2023/11/06 09:53:01;;;;;;;3.00;1.23;;;10.50;92.50;;;;;;4989930;28;20493;-66
2023/11/06 09:55:27;;;;;;;3.85;1.55;;;10.50;92.10;;;;;;4988400;28;20507;-67
2023/11/06 09:57:54;;;;;;;2.25;0.90;;;10.50;92.20;;;;;;4977855;28;20542;-65
2023/11/06 10:00:20;;;;;;;3.70;1.02;;;10.50;92.20;;;;;;4983786;28;20038;-66
2023/11/06 10:02:52;;;;;;;2.05;0.80;;;10.50;92.10;;;;;;4986164;28;20105;-66
2023/11/06 10:05:20;;;;;;;1.83;0.90;;;10.50;92.40;;;;;;4982275;28;20037;-66
2023/11/06 10:07:51;;;;;;;2.65;1.00;;;10.50;92.70;;;;;;4988872;28;20034;-67
2023/11/06 10:10:19;;;;;;;1.20;0.77;;;10.50;92.30;;;;;;4991022;28;20459;-66
2023/11/06 10:12:45;;;;;;;4.90;0.98;;;10.50;92.20;;;;;;4992286;28;20038;-67
2023/11/06 10:15:13;;;;;;;0.98;0.60;;;10.50;91.90;;;;;;4984677;28;20479;-67
2023/11/06 10:17:40;;;;;;;0.93;0.63;;;10.60;91.00;;;;;;4993998;28;20125;-65
2023/11/06 10:20:13;;;;;;;4.00;1.00;;;10.70;90.60;;;;;;4994094;28;20088;-66
2023/11/06 10:22:55;;;;;;;0.60;0.50;;;10.80;90.40;;;;;;4992991;28;20030;-67
2023/11/06 10:25:25;;;;;;;1.70;1.08;;;10.70;91.00;;;;;;4990924;28;20026;-66
2023/11/06 10:27:51;;;;;;;1.98;0.77;;;10.70;91.10;;;;;;4982339;28;20144;-65
2023/11/06 10:30:16;;;;;;;1.88;0.68;;;10.70;90.20;;;;;;4981771;28;20486;-66
2023/11/06 10:32:42;;;;;;;1.83;0.75;;;10.70;91.40;;;;;;4990138;28;20034;-65
2023/11/06 10:35:12;;;;;;;1.13;0.50;;;10.70;90.80;;;;;;4991678;28;20382;-65
2023/11/06 10:37:42;;;;;;;0.50;0.50;;;10.70;90.00;;;;;;4982382;28;20046;-65
2023/11/06 10:40:17;;;;;;;0.75;0.57;;;10.70;89.50;;;;;;4991652;28;20554;-67
2023/11/06 10:42:48;;;;;;;1.17;0.40;;;10.80;89.30;;;;;;4986117;28;20019;-66
2023/11/06 10:45:14;;;;;;;;;;;10.90;90.00;;;;;;4987793;28;20039;-65
2023/11/06 10:47:52;;;;;;;0.75;0.47;;;10.90;89.50;;;;;;4980314;28;20055;-66
2023/11/06 10:50:24;;;;;;;1.20;0.80;;;10.90;89.80;;;;;;4988076;28;20034;-65
2023/11/06 10:52:54;;;;;;;0.88;0.50;;;10.80;89.20;;;;;;4981656;28;20026;-66
2023/11/06 10:55:22;;;;;;;0.85;0.43;;;10.80;88.90;;;;;;4985247;28;20497;-65
2023/11/06 10:57:54;;;;;;;1.95;0.47;;;10.80;88.90;;;;;;4985946;28;20116;-66
2023/11/06 11:00:20;;;;;;;0.50;0.38;;;10.70;89.50;;;;;;4990019;28;20034;-66
2023/11/06 11:02:50;;;;;;;2.47;0.93;;;10.70;89.90;;;;;;4988421;28;20045;-65
2023/11/06 11:05:18;;;;;;;1.65;0.35;;;10.80;89.20;;;;;;4987573;28;20038;-67
2023/11/06 11:07:48;;;;;;;2.25;0.50;;;10.80;88.70;;;;;;4986259;28;20030;-66
2023/11/06 11:10:18;;;;;;;0.20;0.20;;;10.80;88.80;;;;;;4992562;28;20030;-66
2023/11/06 11:12:46;;;;;;;0.87;0.27;;;10.80;88.90;;;;;;4988280;28;20472;-66
2023/11/06 11:15:12;;;;;;;0.73;0.40;;;10.90;89.00;;;;;;4988271;28;20294;-69
2023/11/06 11:17:38;;;;;;;0.93;0.50;;;11.00;88.80;;;;;;4983279;28;20031;-65
2023/11/06 11:20:07;;;;;;;0.47;0.40;;;11.00;88.90;;;;;;4984913;28;20030;-65
2023/11/06 11:22:52;;;;;;;1.88;0.80;;;11.00;88.90;;;;;;4986274;28;20030;-65
2023/11/06 11:25:53;;;;;;;1.33;0.50;;;10.90;88.10;;;;;;4984682;28;20034;-65
2023/11/06 11:28:19;;;;;;;1.10;0.47;;;10.90;88.80;;;;;;4989040;28;20541;-65
2023/11/06 11:30:44;;;;;;;1.20;0.40;;;10.90;89.00;;;;;;4988922;28;20042;-66
2023/11/06 11:33:11;;;;;;;1.13;0.50;;;11.00;89.50;;;;;;4986662;28;20057;-66
2023/11/06 11:35:36;;;;;;;0.70;0.50;;;11.00;88.40;;;;;;4988104;28;20022;-67
2023/11/06 11:38:02;;;;;;;1.15;0.47;;;11.00;88.90;;;;;;4990508;28;20057;-64
2023/11/06 11:41:03;;;;;;;3.13;0.47;;;11.00;88.70;;;;;;4986144;28;20420;-66
2023/11/06 11:43:35;;;;;;;0.28;0.28;;;11.00;89.10;;;;;;4986895;28;20479;-65
2023/11/06 11:46:00;;;;;;;1.73;0.65;;;11.00;89.10;;;;;;4987444;28;20383;-65
2023/11/06 11:48:50;;;;;;;1.95;0.50;;;11.00;88.80;;;;;;4978397;28;20053;-66
2023/11/06 11:51:51;;;;;;;0.60;0.47;;;11.00;88.30;;;;;;4976111;28;20039;-65
2023/11/06 11:54:27;;;;;;;0.73;0.45;;;11.10;88.30;;;;;;4980035;28;20289;-65
2023/11/06 11:56:53;;;;;;;1.58;0.40;;;11.10;88.60;;;;;;4985759;28;20039;-67
2023/11/06 11:59:18;;;;;;;0.90;0.55;;;11.10;88.00;;;;;;4987778;28;20101;-67
2023/11/06 12:01:45;;;;;;;2.67;0.55;;;11.10;88.30;;;;;;4981943;28;20019;-64
2023/11/06 12:04:22;;;;;;;1.05;0.85;;;11.10;88.10;;;;;;4986195;28;20037;-65
2023/11/06 12:06:48;;;;;;;0.30;0.30;;;11.10;88.90;;;;;;4986778;28;20034;-64
2023/11/06 12:09:15;;;;;;;2.78;0.93;;;11.10;88.20;;;;;;4983660;28;20089;-64
2023/11/06 12:11:44;;;;;;;2.03;0.52;;;11.10;87.60;;;;;;4989416;28;20451;-64
2023/11/06 12:14:10;;;;;;;2.13;0.80;;;11.10;87.90;;;;;;4980338;28;20132;-65
2023/11/06 12:16:47;;;;;;;0.85;0.32;;;11.10;87.60;;;;;;4986690;28;20446;-67
2023/11/06 12:19:12;;;;;;;0.68;0.50;;;11.10;87.90;;;;;;4985509;28;20485;-67
2023/11/06 12:21:38;;;;;;;2.95;0.70;;;11.20;87.90;;;;;;4987290;28;20113;-66
2023/11/06 12:24:10;;;;;;;1.58;0.55;;;11.30;87.50;;;;;;4992116;28;20112;-67
2023/11/06 12:26:49;;;;;;;0.35;0.25;;;11.30;87.90;;;;;;4987773;28;20054;-70
2023/11/06 12:29:24;;;;;;;2.63;0.73;;;11.20;87.40;;;;;;4991546;28;20426;-70
2023/11/06 12:31:50;;;;;;;0.43;0.40;;;11.30;88.10;;;;;;4985758;28;20022;-67
2023/11/06 12:34:20;;;;;;;1.30;0.63;;;11.30;88.00;;;;;;4989086;28;20166;-68
2023/11/06 12:36:46;;;;;;;0.73;0.60;;;11.40;88.00;;;;;;4981648;28;20040;-70
2023/11/06 12:39:25;;;;;;;1.15;0.70;;;11.40;87.40;;;;;;4985034;28;20042;-68
2023/11/06 12:41:57;;;;;;;3.25;0.77;;;11.40;87.00;;;;;;4988450;28;20118;-65
2023/11/06 12:44:32;;;;;;;1.60;0.98;;;11.40;86.50;;;;;;4982965;28;20045;-65
2023/11/06 12:46:57;;;;;;;0.43;0.30;;;11.40;87.10;;;;;;4985252;28;20092;-66
2023/11/06 12:49:22;;;;;;;1.95;0.50;;;11.30;87.30;;;;;;4986844;28;20038;-65
2023/11/06 12:51:54;;;;;;;2.13;0.47;;;11.30;87.40;;;;;;4986902;28;20125;-66
2023/11/06 12:54:22;;;;;;;0.68;0.40;;;11.30;87.70;;;;;;4986525;28;20030;-66